createdAt,value
2023-01-21T00:01:03.835Z,23.40
2023-01-21T00:03:30.767Z,25.85
2023-01-21T00:06:00.365Z,26.13
2023-01-21T00:08:27.829Z,25.10
2023-01-21T00:10:55.027Z,25.92
2023-01-21T00:13:22.276Z,26.20
2023-01-21T00:15:49.070Z,26.00
2023-01-21T00:18:15.831Z,25.50
2023-01-21T00:20:42.471Z,26.98
2023-01-21T00:23:10.724Z,26.27
2023-01-21T00:25:37.325Z,22.90
2023-01-21T00:28:04.082Z,24.73
2023-01-21T00:30:30.785Z,23.80
2023-01-21T00:32:57.489Z,25.00
2023-01-21T00:35:24.149Z,25.15
2023-01-21T00:37:54.088Z,25.00
2023-01-21T00:40:21.079Z,23.63
2023-01-21T00:42:47.758Z,24.73
2023-01-21T00:45:14.454Z,22.80
2023-01-21T00:47:41.101Z,23.17
2023-01-21T00:50:08.913Z,24.42
2023-01-21T00:52:35.804Z,25.23
2023-01-21T00:55:02.817Z,23.92
2023-01-21T00:57:29.473Z,24.27
2023-01-21T00:59:56.288Z,23.98
2023-01-21T01:02:22.946Z,24.25
2023-01-21T01:04:49.645Z,25.00
2023-01-21T01:07:16.403Z,23.08
2023-01-21T01:09:43.184Z,23.98
2023-01-21T01:12:09.792Z,24.27
2023-01-21T01:14:36.595Z,22.92
2023-01-21T01:17:03.360Z,23.13
2023-01-21T01:19:30.065Z,22.52
2023-01-21T01:21:56.807Z,23.02
2023-01-21T01:24:23.411Z,22.63
2023-01-21T01:26:50.046Z,22.75
2023-01-21T01:29:18.150Z,23.63
2023-01-21T01:31:44.955Z,22.83
2023-01-21T01:34:11.598Z,22.88
2023-01-21T01:36:38.213Z,22.85
2023-01-21T01:39:05.494Z,23.77
2023-01-21T01:41:34.824Z,22.85
2023-01-21T01:44:04.792Z,24.35
2023-01-21T01:46:34.165Z,23.33
2023-01-21T01:49:15.513Z,24.35
2023-01-21T01:51:53.365Z,24.45
2023-01-21T01:54:30.764Z,23.58
2023-01-21T01:57:02.121Z,24.27
2023-01-21T01:59:30.601Z,24.02
2023-01-21T02:02:01.004Z,22.38
2023-01-21T02:04:33.348Z,27.40
2023-01-21T02:07:00.639Z,25.77
2023-01-21T02:09:29.793Z,23.63
2023-01-21T02:11:58.923Z,25.13
2023-01-21T02:14:26.682Z,24.02
2023-01-21T02:17:17.452Z,24.00
2023-01-21T02:20:14.987Z,25.90
2023-01-21T02:22:55.991Z,23.55
2023-01-21T02:25:44.887Z,23.42
2023-01-21T02:29:06.499Z,23.90
2023-01-21T02:31:59.181Z,24.83
2023-01-21T02:34:56.482Z,24.15
2023-01-21T02:37:41.495Z,24.58
2023-01-21T02:40:37.157Z,24.25
2023-01-21T02:43:22.905Z,23.60
2023-01-21T02:45:55.075Z,24.92
2023-01-21T02:48:29.015Z,26.15
2023-01-21T02:50:55.988Z,26.50
2023-01-21T02:53:31.523Z,24.48
2023-01-21T02:56:12.773Z,25.48
2023-01-21T02:58:49.867Z,24.98
2023-01-21T03:01:40.179Z,25.35
2023-01-21T03:04:38.188Z,25.95
2023-01-21T03:07:28.483Z,24.00
2023-01-21T03:10:05.701Z,24.58
2023-01-21T03:12:35.456Z,25.48
2023-01-21T03:15:23.575Z,24.10
2023-01-21T03:18:01.216Z,23.95
2023-01-21T03:20:34.180Z,26.02
2023-01-21T03:23:23.691Z,25.40
2023-01-21T03:25:50.947Z,24.60
2023-01-21T03:28:22.837Z,25.73
2023-01-21T03:30:57.342Z,26.08
2023-01-21T03:33:25.819Z,24.35
2023-01-21T03:35:55.335Z,25.52
2023-01-21T03:38:31.429Z,26.58
2023-01-21T03:41:11.889Z,24.95
2023-01-21T03:43:39.526Z,25.35
2023-01-21T03:46:21.740Z,25.17
2023-01-21T03:48:50.380Z,26.17
2023-01-21T03:51:22.673Z,26.38
2023-01-21T03:53:56.547Z,27.17
2023-01-21T03:56:24.999Z,26.88
2023-01-21T03:58:51.758Z,27.75
2023-01-21T04:01:18.883Z,27.63
2023-01-21T04:03:45.853Z,27.20
2023-01-21T04:06:18.124Z,28.80
2023-01-21T04:08:45.092Z,29.02
2023-01-21T04:11:11.964Z,28.95
2023-01-21T04:13:38.889Z,28.48
2023-01-21T04:16:06.217Z,30.90
2023-01-21T04:18:32.896Z,29.75
2023-01-21T04:20:59.802Z,29.42
2023-01-21T04:23:26.409Z,29.63
2023-01-21T04:25:53.453Z,31.42
2023-01-21T04:28:20.287Z,32.03
2023-01-21T04:30:48.030Z,31.52
2023-01-21T04:33:15.050Z,31.38
2023-01-21T04:35:41.881Z,31.38
2023-01-21T04:38:08.527Z,30.45
2023-01-21T04:40:35.177Z,32.22
2023-01-21T04:43:01.809Z,30.45
2023-01-21T04:45:28.645Z,32.38
2023-01-21T04:47:55.278Z,31.92
2023-01-21T04:50:21.976Z,31.20
2023-01-21T04:52:48.733Z,32.38
2023-01-21T04:55:15.492Z,32.75
2023-01-21T04:57:42.414Z,32.80
2023-01-21T05:00:09.668Z,32.65
2023-01-21T05:02:36.350Z,31.80
2023-01-21T05:05:03.209Z,32.30
2023-01-21T05:07:29.845Z,30.75
2023-01-21T05:09:56.572Z,31.73
2023-01-21T05:12:23.252Z,32.30
2023-01-21T05:14:53.580Z,30.98
2023-01-21T05:17:21.229Z,32.72
2023-01-21T05:19:47.837Z,32.63
2023-01-21T05:22:14.462Z,32.42
2023-01-21T05:24:41.084Z,30.80
2023-01-21T05:27:07.729Z,29.33
2023-01-21T05:29:34.373Z,29.50
2023-01-21T05:32:01.222Z,29.27
2023-01-21T05:34:27.923Z,31.30
2023-01-21T05:36:54.517Z,29.45
2023-01-21T05:39:21.255Z,31.83
2023-01-21T05:41:47.935Z,31.10
2023-01-21T05:44:17.383Z,31.80
2023-01-21T05:46:44.357Z,30.98
2023-01-21T05:49:10.981Z,30.80
2023-01-21T05:51:37.854Z,30.52
2023-01-21T05:54:04.659Z,31.58
2023-01-21T05:56:31.340Z,31.65
2023-01-21T05:58:57.971Z,28.65
2023-01-21T06:01:24.979Z,30.98
2023-01-21T06:03:51.807Z,31.27
2023-01-21T06:06:18.528Z,30.10
2023-01-21T06:08:45.193Z,29.17
2023-01-21T06:11:11.828Z,31.88
2023-01-21T06:13:38.483Z,31.85
2023-01-21T06:16:05.441Z,32.13
2023-01-21T06:18:32.191Z,28.77
2023-01-21T06:21:00.348Z,31.52
2023-01-21T06:23:27.350Z,30.08
2023-01-21T06:25:53.998Z,30.17
2023-01-21T06:28:20.678Z,32.03
2023-01-21T06:30:47.724Z,32.08
2023-01-21T06:33:14.597Z,31.15
2023-01-21T06:35:41.296Z,30.83
2023-01-21T06:38:08.001Z,31.90
2023-01-21T06:40:34.745Z,32.92
2023-01-21T06:43:01.497Z,32.63
2023-01-21T06:45:28.362Z,31.58
2023-01-21T06:47:54.966Z,31.95
2023-01-21T06:50:21.974Z,32.05
2023-01-21T06:52:50.729Z,33.60
2023-01-21T06:55:17.595Z,33.63
2023-01-21T06:57:45.256Z,34.33
2023-01-21T07:00:13.107Z,33.20
2023-01-21T07:02:40.043Z,32.13
2023-01-21T07:05:07.192Z,33.42
2023-01-21T07:07:33.888Z,32.55
2023-01-21T07:10:00.858Z,32.88
2023-01-21T07:12:31.616Z,32.35
2023-01-21T07:18:16.506Z,34.10
2023-01-21T07:20:43.530Z,34.13
2023-01-21T07:23:10.718Z,33.97
2023-01-21T07:29:52.944Z,33.97
2023-01-21T07:32:20.794Z,33.72
2023-01-21T07:35:13.123Z,33.65
2023-01-21T07:37:47.707Z,35.05
2023-01-21T07:44:27.254Z,32.95
2023-01-21T07:56:47.816Z,34.65
2023-01-21T08:06:43.670Z,32.35
2023-01-21T08:18:24.253Z,36.33
2023-01-21T08:20:59.068Z,27.23
2023-01-21T08:23:27.719Z,35.03
2023-01-21T08:25:55.392Z,37.97
2023-01-21T08:28:23.062Z,36.05
2023-01-21T08:30:49.808Z,39.20
2023-01-21T08:33:16.549Z,37.92
2023-01-21T08:35:43.303Z,37.42
2023-01-21T08:38:09.991Z,38.17
2023-01-21T08:40:36.632Z,37.70
2023-01-21T08:43:04.718Z,38.72
2023-01-21T08:45:31.613Z,36.53
2023-01-21T08:47:58.407Z,39.03
2023-01-21T08:50:25.556Z,36.85
2023-01-21T08:52:56.043Z,36.40
2023-01-21T08:55:26.618Z,28.63
2023-01-21T08:57:55.543Z,36.20
2023-01-21T09:00:23.743Z,38.03
2023-01-21T09:02:51.810Z,37.33
2023-01-21T09:05:19.752Z,35.85
2023-01-21T09:07:46.990Z,37.38
2023-01-21T09:10:34.480Z,36.10
2023-01-21T09:13:09.455Z,35.88
2023-01-21T09:15:43.770Z,33.15
2023-01-21T09:18:10.524Z,37.70
2023-01-21T09:20:37.813Z,34.92
2023-01-21T09:23:24.135Z,37.83
2023-01-21T09:26:06.326Z,39.35
2023-01-21T09:28:35.726Z,38.30
2023-01-21T09:31:04.858Z,37.83
2023-01-21T09:33:33.052Z,37.10
2023-01-21T09:36:02.446Z,37.05
2023-01-21T09:38:29.701Z,36.72
2023-01-21T09:41:04.052Z,37.53
2023-01-21T09:43:40.393Z,36.92
2023-01-21T09:46:17.679Z,35.25
2023-01-21T09:48:48.949Z,36.08
2023-01-21T09:51:38.920Z,34.75
2023-01-21T09:54:15.293Z,33.97
2023-01-21T09:57:07.773Z,32.75
2023-01-21T09:59:47.870Z,34.42
2023-01-21T10:02:24.970Z,34.75
2023-01-21T10:05:11.738Z,34.75
2023-01-21T10:07:49.003Z,32.50
2023-01-21T10:10:43.397Z,32.33
2023-01-21T10:13:19.227Z,31.20
2023-01-21T10:16:00.978Z,31.98
2023-01-21T10:18:31.303Z,32.38
2023-01-21T10:21:04.815Z,32.22
2023-01-21T10:23:43.019Z,31.73
2023-01-21T10:26:13.279Z,30.85
2023-01-21T10:28:47.537Z,32.13
2023-01-21T10:31:23.225Z,31.70
2023-01-21T10:33:50.296Z,29.90
2023-01-21T10:36:54.533Z,32.00
2023-01-21T10:39:38.532Z,29.55
2023-01-21T10:42:39.691Z,30.58
2023-01-21T10:45:25.393Z,29.75
2023-01-21T10:48:05.685Z,29.70
2023-01-21T10:50:58.636Z,31.15
2023-01-21T10:53:48.923Z,31.00
2023-01-21T10:57:10.221Z,28.27
2023-01-21T10:59:38.566Z,27.73
2023-01-21T11:02:28.526Z,26.80
2023-01-21T11:04:58.165Z,27.50
2023-01-21T11:07:26.456Z,28.13
2023-01-21T11:09:53.241Z,27.70
2023-01-21T11:12:21.368Z,27.92
2023-01-21T11:15:01.843Z,27.58
2023-01-21T11:17:37.669Z,26.80
2023-01-21T11:20:18.808Z,27.98
2023-01-21T11:22:47.379Z,26.00
2023-01-21T11:25:41.483Z,27.48
2023-01-21T11:28:26.249Z,24.42
2023-01-21T11:31:11.217Z,27.88
2023-01-21T11:33:39.398Z,23.73
2023-01-21T11:36:20.720Z,26.42
2023-01-21T11:39:01.315Z,25.73
2023-01-21T11:41:28.381Z,24.48
2023-01-21T11:44:07.672Z,23.90
2023-01-21T11:46:39.295Z,24.85
2023-01-21T11:51:37.728Z,25.80
2023-01-21T11:54:15.004Z,25.08
2023-01-21T11:56:51.706Z,26.08
2023-01-21T11:59:23.773Z,25.95
2023-01-21T12:02:06.367Z,23.35
2023-01-21T12:04:34.493Z,24.27
2023-01-21T12:07:01.638Z,25.58
2023-01-21T12:09:29.176Z,26.42
2023-01-21T12:12:17.203Z,25.52
2023-01-21T12:14:59.355Z,24.52
2023-01-21T12:17:54.161Z,24.27
2023-01-21T12:20:43.981Z,25.35
2023-01-21T12:23:24.095Z,24.17
2023-01-21T12:26:12.320Z,25.25
2023-01-21T12:28:49.671Z,24.02
2023-01-21T12:31:32.794Z,22.88
2023-01-21T12:34:31.380Z,23.92
2023-01-21T12:37:05.385Z,23.10
2023-01-21T12:39:35.955Z,24.13
2023-01-21T12:42:21.619Z,24.20
2023-01-21T12:44:57.061Z,24.58
2023-01-21T12:47:32.737Z,24.08
2023-01-21T12:50:30.820Z,23.13
2023-01-21T12:53:09.476Z,25.27
2023-01-21T12:56:00.115Z,25.80
2023-01-21T12:58:32.056Z,22.73
2023-01-21T13:01:05.069Z,22.92
2023-01-21T13:04:04.418Z,22.85
2023-01-21T13:06:56.610Z,22.38
2023-01-21T13:09:33.140Z,20.92
2023-01-21T13:12:25.563Z,20.60
2023-01-21T13:15:16.679Z,19.58
2023-01-21T13:17:48.176Z,19.98
2023-01-21T13:20:20.536Z,19.77
2023-01-21T13:23:05.647Z,20.27
2023-01-21T13:25:57.315Z,19.45
2023-01-21T13:28:39.016Z,19.35
2023-01-21T13:33:53.264Z,18.08
2023-01-21T13:36:28.782Z,16.77
2023-01-21T13:39:18.004Z,17.42
2023-01-21T13:41:47.949Z,16.40
2023-01-21T13:44:26.629Z,15.88
2023-01-21T13:47:21.350Z,16.15
2023-01-21T13:50:19.277Z,16.40
2023-01-21T13:53:07.751Z,15.93
2023-01-21T13:55:56.514Z,16.17
2023-01-21T13:58:48.546Z,17.70
2023-01-21T14:01:29.742Z,16.63
2023-01-21T14:03:56.388Z,15.70
2023-01-21T14:06:29.342Z,15.63
2023-01-21T14:09:06.412Z,15.77
2023-01-21T14:11:42.697Z,15.82
2023-01-21T14:14:47.488Z,16.80
2023-01-21T14:17:14.072Z,15.30
2023-01-21T14:19:49.679Z,16.10
2023-01-21T14:22:31.117Z,16.20
2023-01-21T14:25:21.573Z,15.50
2023-01-21T14:28:02.720Z,16.15
2023-01-21T14:30:39.512Z,16.42
2023-01-21T14:33:17.391Z,16.80
2023-01-21T14:35:58.636Z,17.58
2023-01-21T14:39:07.539Z,16.00
2023-01-21T14:42:02.888Z,17.33
2023-01-21T14:44:48.405Z,17.85
2023-01-21T14:47:29.271Z,18.13
2023-01-21T14:49:58.117Z,19.20
2023-01-21T14:52:34.004Z,18.48
2023-01-21T14:55:01.683Z,18.40
2023-01-21T14:57:34.378Z,19.35
2023-01-21T15:00:10.297Z,18.10
2023-01-21T15:02:42.679Z,18.75
2023-01-21T15:05:19.199Z,16.88
2023-01-21T15:07:49.362Z,18.40
2023-01-21T15:10:28.393Z,18.17
2023-01-21T15:13:02.844Z,19.40
2023-01-21T15:15:41.549Z,18.42
2023-01-21T15:18:33.998Z,18.67
2023-01-21T15:21:01.396Z,18.27
2023-01-21T15:23:31.034Z,18.85
2023-01-21T15:26:11.131Z,18.52
2023-01-21T15:28:45.588Z,18.15
2023-01-21T15:31:20.280Z,20.85
2023-01-21T15:33:51.662Z,19.50
2023-01-21T15:36:31.219Z,19.40
2023-01-21T15:39:22.946Z,20.77
2023-01-21T15:41:57.849Z,19.48
2023-01-21T15:44:54.778Z,20.55
2023-01-21T15:48:00.298Z,20.27
2023-01-21T15:50:51.324Z,19.30
2023-01-21T15:53:33.388Z,20.50
2023-01-21T15:56:42.687Z,20.42
2023-01-21T15:59:48.879Z,20.30
2023-01-21T16:02:34.897Z,20.75
2023-01-21T16:05:35.578Z,20.25
2023-01-21T16:08:19.542Z,20.40
2023-01-21T16:10:58.607Z,18.88
2023-01-21T16:13:42.616Z,18.95
2023-01-21T16:16:30.748Z,21.13
2023-01-21T16:19:11.230Z,20.75
2023-01-21T16:21:41.331Z,19.45
2023-01-21T16:24:17.204Z,20.98
2023-01-21T16:26:44.185Z,21.00
2023-01-21T16:29:13.217Z,20.10
2023-01-21T16:31:59.193Z,21.55
2023-01-21T16:34:37.917Z,21.83
2023-01-21T16:37:12.151Z,21.38
2023-01-21T16:39:40.029Z,20.40
2023-01-21T16:42:19.030Z,22.02
2023-01-21T16:44:45.721Z,20.98
2023-01-21T16:47:23.746Z,21.80
2023-01-21T16:49:50.833Z,20.77
2023-01-21T16:52:20.054Z,23.10
2023-01-21T16:54:52.147Z,19.92
2023-01-21T16:57:25.706Z,20.45
2023-01-21T16:59:55.761Z,21.45
2023-01-21T17:02:31.846Z,20.17
2023-01-21T17:05:04.948Z,21.38
2023-01-21T17:07:43.697Z,20.00
2023-01-21T17:10:24.351Z,20.10
2023-01-21T17:12:58.539Z,20.52
2023-01-21T17:15:43.300Z,20.40
2023-01-21T17:18:27.320Z,20.67
2023-01-21T17:21:10.311Z,20.63
2023-01-21T17:23:47.622Z,22.73
2023-01-21T17:26:18.936Z,21.73
2023-01-21T17:28:53.397Z,22.50
2023-01-21T17:31:30.720Z,21.38
2023-01-21T17:34:06.621Z,23.08
2023-01-21T17:36:39.148Z,22.40
2023-01-21T17:39:07.766Z,21.23
2023-01-21T17:41:42.488Z,22.42
2023-01-21T17:44:20.735Z,21.77
2023-01-21T17:46:52.377Z,21.75
2023-01-21T17:51:52.222Z,21.93
2023-01-21T17:54:25.795Z,23.58
2023-01-21T17:56:54.735Z,21.88
2023-01-21T17:59:40.982Z,22.50
2023-01-21T18:02:13.176Z,21.00
2023-01-21T18:04:40.246Z,22.15
2023-01-21T18:07:35.411Z,20.73
2023-01-21T18:10:03.002Z,19.20
2023-01-21T18:12:30.053Z,17.92
2023-01-21T18:14:56.724Z,17.95
2023-01-21T18:17:25.203Z,15.70
2023-01-21T18:19:52.076Z,15.30
2023-01-21T18:22:27.724Z,14.57
2023-01-21T18:24:55.038Z,14.25
2023-01-21T18:27:25.724Z,13.73
2023-01-21T18:29:53.677Z,13.95
2023-01-21T18:32:20.532Z,14.95
2023-01-21T18:34:47.196Z,14.60
2023-01-21T18:37:17.075Z,15.23
2023-01-21T18:39:43.774Z,14.52
2023-01-21T18:42:14.023Z,15.35
2023-01-21T18:44:41.159Z,14.85
2023-01-21T18:47:13.258Z,14.27
2023-01-21T18:49:40.182Z,14.48
2023-01-21T18:52:06.832Z,14.90
2023-01-21T18:54:33.585Z,15.73
2023-01-21T18:57:00.355Z,15.82
2023-01-21T18:59:27.565Z,16.00
2023-01-21T19:01:54.452Z,15.70
2023-01-21T19:04:21.413Z,15.75
2023-01-21T19:06:50.330Z,16.33
2023-01-21T19:09:24.867Z,13.00
2023-01-21T19:11:51.923Z,15.18
2023-01-21T19:14:18.695Z,14.90
2023-01-21T19:16:46.487Z,18.77
2023-01-21T19:19:16.031Z,16.20
2023-01-21T19:21:42.878Z,14.65
2023-01-21T19:24:12.141Z,15.80
2023-01-21T19:26:39.457Z,13.98
2023-01-21T19:29:14.445Z,15.18
2023-01-21T19:31:41.233Z,14.95
2023-01-21T19:34:11.036Z,15.75
2023-01-21T19:36:39.021Z,15.85
2023-01-21T19:39:17.567Z,17.50
2023-01-21T19:41:44.253Z,16.30
2023-01-21T19:44:10.900Z,17.50
2023-01-21T19:46:37.824Z,19.25
2023-01-21T19:49:12.635Z,18.38
2023-01-21T19:51:39.330Z,17.63
2023-01-21T19:54:06.000Z,19.27
2023-01-21T19:56:32.683Z,17.70
2023-01-21T19:58:59.510Z,19.95
2023-01-21T20:01:26.142Z,19.08
2023-01-21T20:04:00.148Z,20.45
2023-01-21T20:06:40.221Z,21.42
2023-01-21T20:09:07.278Z,21.48
2023-01-21T20:11:34.957Z,22.25
2023-01-21T20:14:01.627Z,21.77
2023-01-21T20:16:28.492Z,24.73
2023-01-21T20:18:56.165Z,24.23
2023-01-21T20:21:23.135Z,23.25
2023-01-21T20:23:49.789Z,23.98
2023-01-21T20:26:25.572Z,24.35
2023-01-21T20:28:54.408Z,25.02
2023-01-21T20:31:21.804Z,24.10
2023-01-21T20:33:48.612Z,24.52
2023-01-21T20:36:24.513Z,24.10
2023-01-21T20:38:52.588Z,25.63
2023-01-21T20:41:19.615Z,26.05
2023-01-21T20:43:46.590Z,28.30
2023-01-21T20:46:19.698Z,25.85
2023-01-21T20:48:46.701Z,26.00
2023-01-21T20:51:13.980Z,26.98
2023-01-21T20:53:40.756Z,27.75
2023-01-21T20:56:19.874Z,26.65
2023-01-21T20:58:49.800Z,25.83
2023-01-21T21:01:18.716Z,28.17
2023-01-21T21:03:45.838Z,26.63
2023-01-21T21:06:27.568Z,29.23
2023-01-21T21:08:55.164Z,26.13
2023-01-21T21:11:21.883Z,28.30
2023-01-21T21:13:51.622Z,28.00
2023-01-21T21:16:21.999Z,27.10
2023-01-21T21:18:48.836Z,29.35
2023-01-21T21:21:16.620Z,29.75
2023-01-21T21:23:46.538Z,28.10
2023-01-21T21:26:33.050Z,29.08
2023-01-21T21:29:00.072Z,28.35
2023-01-21T21:31:31.708Z,28.55
2023-01-21T21:33:58.526Z,29.27
2023-01-21T21:36:25.156Z,29.05
2023-01-21T21:38:55.218Z,28.13
2023-01-21T21:41:43.126Z,29.73
2023-01-21T21:44:10.456Z,29.45
2023-01-21T21:47:16.402Z,27.88
2023-01-21T21:49:43.302Z,28.60
2023-01-21T21:52:10.393Z,30.88
2023-01-21T21:54:37.134Z,29.98
2023-01-21T21:57:03.875Z,27.33
2023-01-21T21:59:30.574Z,28.50
2023-01-21T22:02:00.509Z,29.13
2023-01-21T22:04:27.217Z,28.98
2023-01-21T22:06:53.945Z,28.10
2023-01-21T22:09:20.630Z,27.52
2023-01-21T22:11:47.328Z,28.05
2023-01-21T22:14:14.036Z,28.60
2023-01-21T22:16:40.881Z,29.15
2023-01-21T22:19:07.548Z,28.60
2023-01-21T22:21:34.578Z,28.20
2023-01-21T22:24:03.239Z,28.10
2023-01-21T22:26:30.170Z,27.90
2023-01-21T22:28:57.388Z,27.95
2023-01-21T22:31:27.411Z,27.40
2023-01-21T22:33:54.838Z,26.83
2023-01-21T22:36:24.545Z,27.17
2023-01-21T22:38:51.840Z,26.77
2023-01-21T22:41:20.924Z,26.52
2023-01-21T22:43:48.688Z,27.65
2023-01-21T22:46:19.637Z,27.52
2023-01-21T22:48:46.812Z,26.77
2023-01-21T22:51:15.739Z,26.33
2023-01-21T22:53:43.875Z,26.52
2023-01-21T22:56:15.323Z,25.80
2023-01-21T22:58:42.177Z,27.50
2023-01-21T23:01:19.580Z,28.33
2023-01-21T23:03:46.232Z,26.65
2023-01-21T23:06:12.903Z,26.25
2023-01-21T23:08:39.530Z,25.45
2023-01-21T23:11:07.976Z,26.73
2023-01-21T23:13:35.567Z,25.77
2023-01-21T23:16:05.240Z,25.75
2023-01-21T23:18:31.957Z,26.52
2023-01-21T23:20:58.636Z,27.52
2023-01-21T23:23:25.322Z,26.58
2023-01-21T23:25:52.066Z,26.63
2023-01-21T23:28:18.793Z,27.77
2023-01-21T23:30:45.891Z,24.88
2023-01-21T23:33:12.829Z,25.70
2023-01-21T23:35:39.458Z,24.90
2023-01-21T23:38:06.083Z,26.58
2023-01-21T23:40:32.713Z,24.20
2023-01-21T23:42:59.388Z,25.27
2023-01-21T23:45:26.487Z,25.58
2023-01-21T23:47:54.365Z,24.92
2023-01-21T23:50:21.216Z,23.52
2023-01-21T23:52:47.888Z,24.80
2023-01-21T23:55:14.650Z,26.10
2023-01-21T23:57:41.621Z,25.20
